Terminal Aerodrome Forecast
Issued by NWS Austin/San Antonio, TX

Home | Current Version | Previous Version | Text Only | Print | Product List | Glossary On
Versions: 1 2 3 4 5 6 7 8 9 10 11 12 13 14 15 16 17 18 19 20 21 22 23 24 25 26 27 28 29 30 31 32 33
000
FTUS44 KEWX 292320
TAFSAT
TAF
KSAT 292320Z 3000/3106 14012KT P6SM SCT040 BKN250
     FM300500 13010KT P6SM OVC012
     FM300800 15006KT 5SM BR OVC007
     FM301100 15006KT 5SM BR VCTS OVC007CB
     FM301600 14007KT P6SM OVC015
     FM302000 12008KT P6SM BKN050=

USA.gov is the U.S. government's official web portal to all federal, state and local government web resources and services.